sensor_id;sensor_type;location;lat;lon;timestamp;temperature;humidity
19363;DHT22;9817;50.80926400;5.16316200;2023-08-08T00:00:17;14.90;99.90
19363;DHT22;9817;50.80926400;5.16316200;2023-08-08T00:02:43;15.00;99.90
19363;DHT22;9817;50.80926400;5.16316200;2023-08-08T00:05:09;14.90;99.90
19363;DHT22;9817;50.80926400;5.16316200;2023-08-08T00:07:35;14.80;99.90
19363;DHT22;9817;50.80926400;5.16316200;2023-08-08T00:10:00;14.90;99.90
19363;DHT22;9817;50.80926400;5.16316200;2023-08-08T00:12:26;14.90;99.90
19363;DHT22;9817;50.80926400;5.16316200;2023-08-08T00:14:52;14.90;99.90
19363;DHT22;9817;50.80926400;5.16316200;2023-08-08T00:17:17;14.80;99.90
19363;DHT22;9817;50.80926400;5.16316200;2023-08-08T00:19:43;14.90;99.90
19363;DHT22;9817;50.80926400;5.16316200;2023-08-08T00:22:09;14.90;99.90
19363;DHT22;9817;50.80926400;5.16316200;2023-08-08T00:24:34;15.00;99.90
19363;DHT22;9817;50.80926400;5.16316200;2023-08-08T00:27:00;14.90;99.90
19363;DHT22;9817;50.80926400;5.16316200;2023-08-08T00:29:26;14.80;99.90
19363;DHT22;9817;50.80926400;5.16316200;2023-08-08T00:31:51;14.80;99.90
19363;DHT22;9817;50.80926400;5.16316200;2023-08-08T00:34:18;14.70;99.90
19363;DHT22;9817;50.80926400;5.16316200;2023-08-08T00:36:44;14.60;99.90
19363;DHT22;9817;50.80926400;5.16316200;2023-08-08T00:39:09;14.50;99.90
19363;DHT22;9817;50.80926400;5.16316200;2023-08-08T00:41:35;14.60;99.90
19363;DHT22;9817;50.80926400;5.16316200;2023-08-08T00:44:01;14.70;99.90
19363;DHT22;9817;50.80926400;5.16316200;2023-08-08T00:46:26;14.80;99.90
19363;DHT22;9817;50.80926400;5.16316200;2023-08-08T00:48:52;14.90;99.90
19363;DHT22;9817;50.80926400;5.16316200;2023-08-08T00:51:19;14.90;99.90
19363;DHT22;9817;50.80926400;5.16316200;2023-08-08T00:53:45;14.80;99.90
19363;DHT22;9817;50.80926400;5.16316200;2023-08-08T00:56:14;14.70;99.90
19363;DHT22;9817;50.80926400;5.16316200;2023-08-08T00:58:42;14.70;99.90
19363;DHT22;9817;50.80926400;5.16316200;2023-08-08T01:01:11;14.60;99.90
19363;DHT22;9817;50.80926400;5.16316200;2023-08-08T01:03:37;14.60;99.90
19363;DHT22;9817;50.80926400;5.16316200;2023-08-08T01:08:35;14.50;99.90
19363;DHT22;9817;50.80926400;5.16316200;2023-08-08T01:11:04;14.40;99.90
19363;DHT22;9817;50.80926400;5.16316200;2023-08-08T01:13:31;14.40;99.90
19363;DHT22;9817;50.80926400;5.16316200;2023-08-08T01:15:59;14.40;99.90
19363;DHT22;9817;50.80926400;5.16316200;2023-08-08T01:18:25;14.40;99.90
19363;DHT22;9817;50.80926400;5.16316200;2023-08-08T01:20:52;14.50;99.90
19363;DHT22;9817;50.80926400;5.16316200;2023-08-08T01:23:30;14.50;99.90
19363;DHT22;9817;50.80926400;5.16316200;2023-08-08T01:25:58;14.50;99.90
19363;DHT22;9817;50.80926400;5.16316200;2023-08-08T01:28:25;14.50;99.90
19363;DHT22;9817;50.80926400;5.16316200;2023-08-08T01:30:51;14.50;99.90
19363;DHT22;9817;50.80926400;5.16316200;2023-08-08T01:33:17;14.40;99.90
19363;DHT22;9817;50.80926400;5.16316200;2023-08-08T01:36:09;14.30;99.90
19363;DHT22;9817;50.80926400;5.16316200;2023-08-08T01:38:41;14.40;99.90
19363;DHT22;9817;50.80926400;5.16316200;2023-08-08T01:41:08;14.40;99.90
19363;DHT22;9817;50.80926400;5.16316200;2023-08-08T01:43:35;14.40;99.90
19363;DHT22;9817;50.80926400;5.16316200;2023-08-08T01:46:04;14.40;99.90
19363;DHT22;9817;50.80926400;5.16316200;2023-08-08T01:48:30;14.30;99.90
19363;DHT22;9817;50.80926400;5.16316200;2023-08-08T01:50:56;14.30;99.90
19363;DHT22;9817;50.80926400;5.16316200;2023-08-08T01:53:21;14.30;99.90
19363;DHT22;9817;50.80926400;5.16316200;2023-08-08T01:55:47;14.40;99.90
19363;DHT22;9817;50.80926400;5.16316200;2023-08-08T01:58:13;14.40;99.90
19363;DHT22;9817;50.80926400;5.16316200;2023-08-08T02:00:38;14.40;99.90
19363;DHT22;9817;50.80926400;5.16316200;2023-08-08T02:03:06;14.60;99.90
19363;DHT22;9817;50.80926400;5.16316200;2023-08-08T02:05:32;14.60;99.90
19363;DHT22;9817;50.80926400;5.16316200;2023-08-08T02:07:58;14.50;99.90
19363;DHT22;9817;50.80926400;5.16316200;2023-08-08T02:10:23;14.40;99.90
19363;DHT22;9817;50.80926400;5.16316200;2023-08-08T02:12:49;14.40;99.90
19363;DHT22;9817;50.80926400;5.16316200;2023-08-08T02:15:15;14.40;99.90
19363;DHT22;9817;50.80926400;5.16316200;2023-08-08T02:17:40;14.40;99.90
19363;DHT22;9817;50.80926400;5.16316200;2023-08-08T02:20:07;14.30;99.90
19363;DHT22;9817;50.80926400;5.16316200;2023-08-08T02:22:33;14.20;99.90
19363;DHT22;9817;50.80926400;5.16316200;2023-08-08T02:24:59;14.30;99.90
19363;DHT22;9817;50.80926400;5.16316200;2023-08-08T02:27:24;14.20;99.90
19363;DHT22;9817;50.80926400;5.16316200;2023-08-08T02:29:50;14.20;99.90
19363;DHT22;9817;50.80926400;5.16316200;2023-08-08T02:32:16;14.20;99.90
19363;DHT22;9817;50.80926400;5.16316200;2023-08-08T02:34:41;14.20;99.90
19363;DHT22;9817;50.80926400;5.16316200;2023-08-08T02:37:08;14.30;99.90
19363;DHT22;9817;50.80926400;5.16316200;2023-08-08T02:39:34;14.40;99.90
19363;DHT22;9817;50.80926400;5.16316200;2023-08-08T02:41:59;14.40;99.90
19363;DHT22;9817;50.80926400;5.16316200;2023-08-08T02:44:25;14.40;99.90
19363;DHT22;9817;50.80926400;5.16316200;2023-08-08T02:46:50;14.30;99.90
19363;DHT22;9817;50.80926400;5.16316200;2023-08-08T02:49:16;14.10;99.90
19363;DHT22;9817;50.80926400;5.16316200;2023-08-08T02:51:42;14.10;99.90
19363;DHT22;9817;50.80926400;5.16316200;2023-08-08T02:54:07;14.20;99.90
19363;DHT22;9817;50.80926400;5.16316200;2023-08-08T02:56:33;14.20;99.90
19363;DHT22;9817;50.80926400;5.16316200;2023-08-08T02:58:59;14.20;99.90
19363;DHT22;9817;50.80926400;5.16316200;2023-08-08T03:01:24;14.10;99.90
19363;DHT22;9817;50.80926400;5.16316200;2023-08-08T03:03:50;14.10;99.90
19363;DHT22;9817;50.80926400;5.16316200;2023-08-08T03:06:16;14.10;99.90
19363;DHT22;9817;50.80926400;5.16316200;2023-08-08T03:08:41;14.10;99.90
19363;DHT22;9817;50.80926400;5.16316200;2023-08-08T03:11:07;14.10;99.90
19363;DHT22;9817;50.80926400;5.16316200;2023-08-08T03:13:33;14.10;99.90
19363;DHT22;9817;50.80926400;5.16316200;2023-08-08T03:15:58;14.20;99.90
19363;DHT22;9817;50.80926400;5.16316200;2023-08-08T03:18:24;14.20;99.90
19363;DHT22;9817;50.80926400;5.16316200;2023-08-08T03:20:51;14.20;99.90
19363;DHT22;9817;50.80926400;5.16316200;2023-08-08T03:23:17;14.10;99.90
19363;DHT22;9817;50.80926400;5.16316200;2023-08-08T03:25:43;14.10;99.90
19363;DHT22;9817;50.80926400;5.16316200;2023-08-08T03:28:09;14.00;99.90
19363;DHT22;9817;50.80926400;5.16316200;2023-08-08T03:30:37;13.90;99.90
19363;DHT22;9817;50.80926400;5.16316200;2023-08-08T03:33:03;14.00;99.90
19363;DHT22;9817;50.80926400;5.16316200;2023-08-08T03:35:29;14.00;99.90
19363;DHT22;9817;50.80926400;5.16316200;2023-08-08T03:37:55;14.10;99.90
19363;DHT22;9817;50.80926400;5.16316200;2023-08-08T03:40:20;14.00;99.90
19363;DHT22;9817;50.80926400;5.16316200;2023-08-08T03:42:46;13.90;99.90
19363;DHT22;9817;50.80926400;5.16316200;2023-08-08T03:45:12;13.80;99.90
19363;DHT22;9817;50.80926400;5.16316200;2023-08-08T03:47:37;13.80;99.90
19363;DHT22;9817;50.80926400;5.16316200;2023-08-08T03:50:04;13.80;99.90
19363;DHT22;9817;50.80926400;5.16316200;2023-08-08T03:52:30;13.70;99.90
19363;DHT22;9817;50.80926400;5.16316200;2023-08-08T03:54:56;13.70;99.90
19363;DHT22;9817;50.80926400;5.16316200;2023-08-08T03:57:22;13.70;99.90
19363;DHT22;9817;50.80926400;5.16316200;2023-08-08T03:59:47;13.70;99.90
19363;DHT22;9817;50.80926400;5.16316200;2023-08-08T04:02:13;13.80;99.90
19363;DHT22;9817;50.80926400;5.16316200;2023-08-08T04:04:39;13.80;99.90
19363;DHT22;9817;50.80926400;5.16316200;2023-08-08T04:07:04;13.80;99.90
19363;DHT22;9817;50.80926400;5.16316200;2023-08-08T04:09:30;13.80;99.90
19363;DHT22;9817;50.80926400;5.16316200;2023-08-08T04:11:56;13.90;99.90
19363;DHT22;9817;50.80926400;5.16316200;2023-08-08T04:14:22;13.90;99.90
19363;DHT22;9817;50.80926400;5.16316200;2023-08-08T04:16:48;13.90;99.90
19363;DHT22;9817;50.80926400;5.16316200;2023-08-08T04:19:13;13.90;99.90
19363;DHT22;9817;50.80926400;5.16316200;2023-08-08T04:21:39;13.70;99.90
19363;DHT22;9817;50.80926400;5.16316200;2023-08-08T04:24:05;13.60;99.90
19363;DHT22;9817;50.80926400;5.16316200;2023-08-08T04:26:33;13.80;99.90
19363;DHT22;9817;50.80926400;5.16316200;2023-08-08T04:28:59;13.90;99.90
19363;DHT22;9817;50.80926400;5.16316200;2023-08-08T04:31:24;13.90;99.90
19363;DHT22;9817;50.80926400;5.16316200;2023-08-08T04:33:52;13.90;99.90
19363;DHT22;9817;50.80926400;5.16316200;2023-08-08T04:36:23;13.90;99.90
19363;DHT22;9817;50.80926400;5.16316200;2023-08-08T04:38:49;13.90;99.90
19363;DHT22;9817;50.80926400;5.16316200;2023-08-08T04:41:14;13.90;99.90
19363;DHT22;9817;50.80926400;5.16316200;2023-08-08T04:43:40;13.80;99.90
19363;DHT22;9817;50.80926400;5.16316200;2023-08-08T04:46:06;13.90;99.90
19363;DHT22;9817;50.80926400;5.16316200;2023-08-08T04:48:31;13.90;99.90
19363;DHT22;9817;50.80926400;5.16316200;2023-08-08T04:50:58;14.00;99.90
19363;DHT22;9817;50.80926400;5.16316200;2023-08-08T04:53:23;14.00;99.90
19363;DHT22;9817;50.80926400;5.16316200;2023-08-08T04:55:49;13.90;99.90
19363;DHT22;9817;50.80926400;5.16316200;2023-08-08T04:58:15;14.00;99.90
19363;DHT22;9817;50.80926400;5.16316200;2023-08-08T05:00:40;14.00;99.90
19363;DHT22;9817;50.80926400;5.16316200;2023-08-08T05:03:06;13.90;99.90
19363;DHT22;9817;50.80926400;5.16316200;2023-08-08T05:05:31;14.00;99.90
19363;DHT22;9817;50.80926400;5.16316200;2023-08-08T05:07:58;14.10;99.90
19363;DHT22;9817;50.80926400;5.16316200;2023-08-08T05:10:24;14.20;99.90
19363;DHT22;9817;50.80926400;5.16316200;2023-08-08T05:12:49;14.20;99.90
19363;DHT22;9817;50.80926400;5.16316200;2023-08-08T05:15:15;14.30;99.90
19363;DHT22;9817;50.80926400;5.16316200;2023-08-08T05:17:41;14.30;99.90
19363;DHT22;9817;50.80926400;5.16316200;2023-08-08T05:20:07;14.30;99.90
19363;DHT22;9817;50.80926400;5.16316200;2023-08-08T05:22:33;14.30;99.90
19363;DHT22;9817;50.80926400;5.16316200;2023-08-08T05:24:59;14.20;99.90
19363;DHT22;9817;50.80926400;5.16316200;2023-08-08T05:27:24;14.30;99.90
19363;DHT22;9817;50.80926400;5.16316200;2023-08-08T05:29:50;14.40;99.90
19363;DHT22;9817;50.80926400;5.16316200;2023-08-08T05:32:16;14.50;99.90
19363;DHT22;9817;50.80926400;5.16316200;2023-08-08T05:34:41;14.60;99.90
19363;DHT22;9817;50.80926400;5.16316200;2023-08-08T05:37:07;14.60;99.90
19363;DHT22;9817;50.80926400;5.16316200;2023-08-08T05:39:32;14.60;99.90
19363;DHT22;9817;50.80926400;5.16316200;2023-08-08T05:41:58;14.60;99.90
19363;DHT22;9817;50.80926400;5.16316200;2023-08-08T05:44:24;14.70;99.90
19363;DHT22;9817;50.80926400;5.16316200;2023-08-08T05:46:49;14.80;99.90
19363;DHT22;9817;50.80926400;5.16316200;2023-08-08T05:49:15;14.70;99.90
19363;DHT22;9817;50.80926400;5.16316200;2023-08-08T05:51:41;14.70;99.90
19363;DHT22;9817;50.80926400;5.16316200;2023-08-08T05:54:06;14.80;99.90
19363;DHT22;9817;50.80926400;5.16316200;2023-08-08T05:56:36;14.80;99.90
19363;DHT22;9817;50.80926400;5.16316200;2023-08-08T05:59:02;14.90;99.90
19363;DHT22;9817;50.80926400;5.16316200;2023-08-08T06:01:28;14.70;99.90
19363;DHT22;9817;50.80926400;5.16316200;2023-08-08T06:03:54;14.70;99.90
19363;DHT22;9817;50.80926400;5.16316200;2023-08-08T06:06:20;14.90;99.90
19363;DHT22;9817;50.80926400;5.16316200;2023-08-08T06:08:45;15.00;99.90
19363;DHT22;9817;50.80926400;5.16316200;2023-08-08T06:11:11;15.10;99.90
19363;DHT22;9817;50.80926400;5.16316200;2023-08-08T06:13:37;15.20;99.90
19363;DHT22;9817;50.80926400;5.16316200;2023-08-08T06:16:03;15.30;99.90
19363;DHT22;9817;50.80926400;5.16316200;2023-08-08T06:18:32;15.40;99.90
19363;DHT22;9817;50.80926400;5.16316200;2023-08-08T06:20:58;15.40;99.90
19363;DHT22;9817;50.80926400;5.16316200;2023-08-08T06:23:24;15.40;99.90
19363;DHT22;9817;50.80926400;5.16316200;2023-08-08T06:25:50;15.50;99.90
19363;DHT22;9817;50.80926400;5.16316200;2023-08-08T06:28:15;15.50;99.90
19363;DHT22;9817;50.80926400;5.16316200;2023-08-08T06:30:41;15.60;99.90
19363;DHT22;9817;50.80926400;5.16316200;2023-08-08T06:33:07;15.70;99.90
19363;DHT22;9817;50.80926400;5.16316200;2023-08-08T06:35:33;15.80;99.90
19363;DHT22;9817;50.80926400;5.16316200;2023-08-08T06:37:58;15.90;99.90
19363;DHT22;9817;50.80926400;5.16316200;2023-08-08T06:40:24;16.20;99.90
19363;DHT22;9817;50.80926400;5.16316200;2023-08-08T06:42:50;16.60;99.90
19363;DHT22;9817;50.80926400;5.16316200;2023-08-08T06:45:15;17.00;99.90
19363;DHT22;9817;50.80926400;5.16316200;2023-08-08T06:47:41;17.10;99.90
19363;DHT22;9817;50.80926400;5.16316200;2023-08-08T06:50:07;17.00;99.90
19363;DHT22;9817;50.80926400;5.16316200;2023-08-08T06:52:33;16.90;99.90
19363;DHT22;9817;50.80926400;5.16316200;2023-08-08T06:54:59;16.90;99.90
19363;DHT22;9817;50.80926400;5.16316200;2023-08-08T06:57:24;16.80;99.90
19363;DHT22;9817;50.80926400;5.16316200;2023-08-08T06:59:50;16.90;99.90
19363;DHT22;9817;50.80926400;5.16316200;2023-08-08T07:02:17;16.90;99.90
19363;DHT22;9817;50.80926400;5.16316200;2023-08-08T07:04:43;16.90;99.90
19363;DHT22;9817;50.80926400;5.16316200;2023-08-08T07:07:08;17.00;99.90
19363;DHT22;9817;50.80926400;5.16316200;2023-08-08T07:09:35;17.00;99.90
19363;DHT22;9817;50.80926400;5.16316200;2023-08-08T07:12:03;17.00;99.90
19363;DHT22;9817;50.80926400;5.16316200;2023-08-08T07:14:29;16.80;99.90
19363;DHT22;9817;50.80926400;5.16316200;2023-08-08T07:16:55;16.90;99.90
19363;DHT22;9817;50.80926400;5.16316200;2023-08-08T07:19:21;17.20;99.90
19363;DHT22;9817;50.80926400;5.16316200;2023-08-08T07:21:47;17.50;99.90
19363;DHT22;9817;50.80926400;5.16316200;2023-08-08T07:24:13;17.80;99.90
19363;DHT22;9817;50.80926400;5.16316200;2023-08-08T07:26:38;18.00;99.90
19363;DHT22;9817;50.80926400;5.16316200;2023-08-08T07:29:04;18.20;99.90
19363;DHT22;9817;50.80926400;5.16316200;2023-08-08T07:31:32;18.50;99.90
19363;DHT22;9817;50.80926400;5.16316200;2023-08-08T07:33:57;18.70;99.90
19363;DHT22;9817;50.80926400;5.16316200;2023-08-08T07:36:23;18.80;99.90
19363;DHT22;9817;50.80926400;5.16316200;2023-08-08T07:38:49;18.90;99.90
19363;DHT22;9817;50.80926400;5.16316200;2023-08-08T07:41:14;18.90;99.90
19363;DHT22;9817;50.80926400;5.16316200;2023-08-08T07:43:40;18.80;99.90
19363;DHT22;9817;50.80926400;5.16316200;2023-08-08T07:46:06;18.90;99.90
19363;DHT22;9817;50.80926400;5.16316200;2023-08-08T07:48:31;19.20;99.90
19363;DHT22;9817;50.80926400;5.16316200;2023-08-08T07:50:57;19.30;99.90
19363;DHT22;9817;50.80926400;5.16316200;2023-08-08T07:53:23;19.60;99.90
19363;DHT22;9817;50.80926400;5.16316200;2023-08-08T07:55:48;19.60;99.90
19363;DHT22;9817;50.80926400;5.16316200;2023-08-08T07:58:14;19.60;99.90
19363;DHT22;9817;50.80926400;5.16316200;2023-08-08T08:00:40;20.00;99.90
19363;DHT22;9817;50.80926400;5.16316200;2023-08-08T08:03:06;20.20;99.90
19363;DHT22;9817;50.80926400;5.16316200;2023-08-08T08:05:32;20.10;99.90
19363;DHT22;9817;50.80926400;5.16316200;2023-08-08T08:08:00;20.00;99.90
19363;DHT22;9817;50.80926400;5.16316200;2023-08-08T08:10:25;19.80;99.90
19363;DHT22;9817;50.80926400;5.16316200;2023-08-08T08:12:51;19.60;99.90
19363;DHT22;9817;50.80926400;5.16316200;2023-08-08T08:15:23;19.70;99.90
19363;DHT22;9817;50.80926400;5.16316200;2023-08-08T08:17:49;19.90;99.90
19363;DHT22;9817;50.80926400;5.16316200;2023-08-08T08:20:15;20.10;99.90
19363;DHT22;9817;50.80926400;5.16316200;2023-08-08T08:22:40;20.00;99.90
19363;DHT22;9817;50.80926400;5.16316200;2023-08-08T08:25:06;20.10;99.90
19363;DHT22;9817;50.80926400;5.16316200;2023-08-08T08:27:35;19.90;99.90
19363;DHT22;9817;50.80926400;5.16316200;2023-08-08T08:30:01;20.30;99.90
19363;DHT22;9817;50.80926400;5.16316200;2023-08-08T08:32:26;21.10;99.90
19363;DHT22;9817;50.80926400;5.16316200;2023-08-08T08:34:52;21.50;99.90
19363;DHT22;9817;50.80926400;5.16316200;2023-08-08T08:37:18;21.80;99.90
19363;DHT22;9817;50.80926400;5.16316200;2023-08-08T08:39:43;22.00;99.90
19363;DHT22;9817;50.80926400;5.16316200;2023-08-08T08:42:10;22.10;99.90
19363;DHT22;9817;50.80926400;5.16316200;2023-08-08T08:44:40;21.70;99.90
19363;DHT22;9817;50.80926400;5.16316200;2023-08-08T08:47:08;21.50;99.90
19363;DHT22;9817;50.80926400;5.16316200;2023-08-08T08:49:38;21.90;99.90
19363;DHT22;9817;50.80926400;5.16316200;2023-08-08T08:52:04;22.10;99.90
19363;DHT22;9817;50.80926400;5.16316200;2023-08-08T08:54:33;23.00;99.90
19363;DHT22;9817;50.80926400;5.16316200;2023-08-08T08:56:59;23.50;99.90
19363;DHT22;9817;50.80926400;5.16316200;2023-08-08T08:59:24;23.60;99.90
19363;DHT22;9817;50.80926400;5.16316200;2023-08-08T09:01:51;23.80;99.90
19363;DHT22;9817;50.80926400;5.16316200;2023-08-08T09:04:19;23.00;99.90
19363;DHT22;9817;50.80926400;5.16316200;2023-08-08T09:06:47;22.50;99.90
19363;DHT22;9817;50.80926400;5.16316200;2023-08-08T09:09:12;22.10;99.90
19363;DHT22;9817;50.80926400;5.16316200;2023-08-08T09:11:45;22.10;99.90
19363;DHT22;9817;50.80926400;5.16316200;2023-08-08T09:14:20;22.00;99.90
19363;DHT22;9817;50.80926400;5.16316200;2023-08-08T09:16:47;22.40;99.90
19363;DHT22;9817;50.80926400;5.16316200;2023-08-08T09:19:14;22.50;99.90
19363;DHT22;9817;50.80926400;5.16316200;2023-08-08T09:21:39;22.50;99.90
19363;DHT22;9817;50.80926400;5.16316200;2023-08-08T09:24:05;22.00;99.90
19363;DHT22;9817;50.80926400;5.16316200;2023-08-08T09:26:32;21.90;99.90
19363;DHT22;9817;50.80926400;5.16316200;2023-08-08T09:28:58;21.80;99.90
19363;DHT22;9817;50.80926400;5.16316200;2023-08-08T09:31:27;21.50;99.90
19363;DHT22;9817;50.80926400;5.16316200;2023-08-08T09:34:00;21.30;99.90
19363;DHT22;9817;50.80926400;5.16316200;2023-08-08T09:36:26;21.20;99.90
19363;DHT22;9817;50.80926400;5.16316200;2023-08-08T09:38:52;21.00;99.90
19363;DHT22;9817;50.80926400;5.16316200;2023-08-08T09:41:19;20.70;99.90
19363;DHT22;9817;50.80926400;5.16316200;2023-08-08T09:43:47;20.60;99.90
19363;DHT22;9817;50.80926400;5.16316200;2023-08-08T09:46:12;20.80;99.90
19363;DHT22;9817;50.80926400;5.16316200;2023-08-08T09:48:40;20.90;99.90
19363;DHT22;9817;50.80926400;5.16316200;2023-08-08T09:51:08;21.00;99.90
19363;DHT22;9817;50.80926400;5.16316200;2023-08-08T09:53:34;20.90;99.90
19363;DHT22;9817;50.80926400;5.16316200;2023-08-08T09:56:03;20.60;99.90
19363;DHT22;9817;50.80926400;5.16316200;2023-08-08T09:58:30;20.70;99.90
19363;DHT22;9817;50.80926400;5.16316200;2023-08-08T10:00:57;20.80;99.90
19363;DHT22;9817;50.80926400;5.16316200;2023-08-08T10:03:24;20.90;99.90
19363;DHT22;9817;50.80926400;5.16316200;2023-08-08T10:05:50;20.70;99.90
19363;DHT22;9817;50.80926400;5.16316200;2023-08-08T10:08:16;20.90;99.90
19363;DHT22;9817;50.80926400;5.16316200;2023-08-08T10:10:44;21.00;99.90
19363;DHT22;9817;50.80926400;5.16316200;2023-08-08T10:13:18;20.90;99.90
19363;DHT22;9817;50.80926400;5.16316200;2023-08-08T10:15:44;20.80;99.90
19363;DHT22;9817;50.80926400;5.16316200;2023-08-08T10:18:12;20.70;99.90
19363;DHT22;9817;50.80926400;5.16316200;2023-08-08T10:20:40;20.70;99.90
19363;DHT22;9817;50.80926400;5.16316200;2023-08-08T10:23:07;20.70;99.90
19363;DHT22;9817;50.80926400;5.16316200;2023-08-08T10:25:33;20.50;99.90
19363;DHT22;9817;50.80926400;5.16316200;2023-08-08T10:28:09;20.60;99.90
19363;DHT22;9817;50.80926400;5.16316200;2023-08-08T10:31:02;20.70;99.90
19363;DHT22;9817;50.80926400;5.16316200;2023-08-08T10:33:40;20.40;99.90
19363;DHT22;9817;50.80926400;5.16316200;2023-08-08T10:36:07;20.30;99.90
19363;DHT22;9817;50.80926400;5.16316200;2023-08-08T10:38:59;20.10;99.90
19363;DHT22;9817;50.80926400;5.16316200;2023-08-08T10:41:26;20.00;99.90
19363;DHT22;9817;50.80926400;5.16316200;2023-08-08T10:43:54;19.90;99.90
19363;DHT22;9817;50.80926400;5.16316200;2023-08-08T10:46:30;20.20;99.90
19363;DHT22;9817;50.80926400;5.16316200;2023-08-08T10:48:57;20.50;99.90
19363;DHT22;9817;50.80926400;5.16316200;2023-08-08T10:51:44;20.70;99.90
19363;DHT22;9817;50.80926400;5.16316200;2023-08-08T10:54:24;21.20;99.90
19363;DHT22;9817;50.80926400;5.16316200;2023-08-08T10:56:55;21.50;99.90
19363;DHT22;9817;50.80926400;5.16316200;2023-08-08T10:59:24;21.60;99.90
19363;DHT22;9817;50.80926400;5.16316200;2023-08-08T11:01:52;21.60;99.90
19363;DHT22;9817;50.80926400;5.16316200;2023-08-08T11:04:19;21.40;99.90
19363;DHT22;9817;50.80926400;5.16316200;2023-08-08T11:06:45;21.30;99.90
19363;DHT22;9817;50.80926400;5.16316200;2023-08-08T11:09:13;21.20;99.90
19363;DHT22;9817;50.80926400;5.16316200;2023-08-08T11:11:40;21.20;99.90
19363;DHT22;9817;50.80926400;5.16316200;2023-08-08T11:14:17;20.80;99.90
19363;DHT22;9817;50.80926400;5.16316200;2023-08-08T11:16:44;20.60;99.90
19363;DHT22;9817;50.80926400;5.16316200;2023-08-08T11:19:11;20.50;99.90
19363;DHT22;9817;50.80926400;5.16316200;2023-08-08T11:21:40;20.40;99.90
19363;DHT22;9817;50.80926400;5.16316200;2023-08-08T11:24:06;20.50;99.90
19363;DHT22;9817;50.80926400;5.16316200;2023-08-08T11:26:33;20.40;99.90
19363;DHT22;9817;50.80926400;5.16316200;2023-08-08T11:29:00;20.00;99.90
19363;DHT22;9817;50.80926400;5.16316200;2023-08-08T11:31:26;19.80;99.90
19363;DHT22;9817;50.80926400;5.16316200;2023-08-08T11:33:56;19.70;99.90
19363;DHT22;9817;50.80926400;5.16316200;2023-08-08T11:36:25;19.60;99.90
19363;DHT22;9817;50.80926400;5.16316200;2023-08-08T11:38:51;19.50;99.90
19363;DHT22;9817;50.80926400;5.16316200;2023-08-08T11:41:21;19.60;99.90
19363;DHT22;9817;50.80926400;5.16316200;2023-08-08T11:43:48;19.60;99.90
19363;DHT22;9817;50.80926400;5.16316200;2023-08-08T11:46:15;19.50;99.90
19363;DHT22;9817;50.80926400;5.16316200;2023-08-08T11:48:41;19.70;99.90
19363;DHT22;9817;50.80926400;5.16316200;2023-08-08T11:51:08;19.60;99.90
19363;DHT22;9817;50.80926400;5.16316200;2023-08-08T11:53:34;19.70;99.90
19363;DHT22;9817;50.80926400;5.16316200;2023-08-08T11:56:02;20.00;99.90
19363;DHT22;9817;50.80926400;5.16316200;2023-08-08T11:58:29;20.00;99.90
19363;DHT22;9817;50.80926400;5.16316200;2023-08-08T12:00:56;20.10;99.90
19363;DHT22;9817;50.80926400;5.16316200;2023-08-08T12:03:22;20.00;99.90
19363;DHT22;9817;50.80926400;5.16316200;2023-08-08T12:05:50;20.00;99.90
19363;DHT22;9817;50.80926400;5.16316200;2023-08-08T12:08:20;20.00;99.90
19363;DHT22;9817;50.80926400;5.16316200;2023-08-08T12:10:52;19.80;99.90
19363;DHT22;9817;50.80926400;5.16316200;2023-08-08T12:13:21;20.00;99.90
19363;DHT22;9817;50.80926400;5.16316200;2023-08-08T12:15:47;20.00;99.90
19363;DHT22;9817;50.80926400;5.16316200;2023-08-08T12:18:19;20.30;99.90
19363;DHT22;9817;50.80926400;5.16316200;2023-08-08T12:20:45;20.60;99.90
19363;DHT22;9817;50.80926400;5.16316200;2023-08-08T12:23:12;20.70;99.90
19363;DHT22;9817;50.80926400;5.16316200;2023-08-08T12:25:38;20.60;99.90
19363;DHT22;9817;50.80926400;5.16316200;2023-08-08T12:28:04;20.50;99.90
19363;DHT22;9817;50.80926400;5.16316200;2023-08-08T12:30:30;20.50;99.90
19363;DHT22;9817;50.80926400;5.16316200;2023-08-08T12:32:57;20.30;99.90
19363;DHT22;9817;50.80926400;5.16316200;2023-08-08T12:35:22;19.80;99.90
19363;DHT22;9817;50.80926400;5.16316200;2023-08-08T12:37:48;19.90;99.90
19363;DHT22;9817;50.80926400;5.16316200;2023-08-08T12:40:13;20.30;99.90
19363;DHT22;9817;50.80926400;5.16316200;2023-08-08T12:42:39;20.70;99.90
19363;DHT22;9817;50.80926400;5.16316200;2023-08-08T12:45:06;21.00;99.90
19363;DHT22;9817;50.80926400;5.16316200;2023-08-08T12:47:32;21.20;99.90
19363;DHT22;9817;50.80926400;5.16316200;2023-08-08T12:50:01;21.20;99.90
19363;DHT22;9817;50.80926400;5.16316200;2023-08-08T12:52:28;20.90;99.90
19363;DHT22;9817;50.80926400;5.16316200;2023-08-08T12:54:54;20.40;99.90
19363;DHT22;9817;50.80926400;5.16316200;2023-08-08T12:57:19;20.30;99.90
19363;DHT22;9817;50.80926400;5.16316200;2023-08-08T12:59:45;20.20;99.90
19363;DHT22;9817;50.80926400;5.16316200;2023-08-08T13:02:11;19.90;99.90
19363;DHT22;9817;50.80926400;5.16316200;2023-08-08T13:04:36;19.80;99.90
19363;DHT22;9817;50.80926400;5.16316200;2023-08-08T13:07:02;19.80;99.90
19363;DHT22;9817;50.80926400;5.16316200;2023-08-08T13:09:35;19.80;99.90
19363;DHT22;9817;50.80926400;5.16316200;2023-08-08T13:12:01;19.70;99.90
19363;DHT22;9817;50.80926400;5.16316200;2023-08-08T13:14:27;20.20;99.90
19363;DHT22;9817;50.80926400;5.16316200;2023-08-08T13:16:52;20.40;99.90
19363;DHT22;9817;50.80926400;5.16316200;2023-08-08T13:19:20;20.90;99.90
19363;DHT22;9817;50.80926400;5.16316200;2023-08-08T13:21:47;21.10;99.90
19363;DHT22;9817;50.80926400;5.16316200;2023-08-08T13:24:12;21.30;99.90
19363;DHT22;9817;50.80926400;5.16316200;2023-08-08T13:26:39;21.50;99.90
19363;DHT22;9817;50.80926400;5.16316200;2023-08-08T13:29:05;21.60;99.90
19363;DHT22;9817;50.80926400;5.16316200;2023-08-08T13:31:30;21.90;99.90
19363;DHT22;9817;50.80926400;5.16316200;2023-08-08T13:33:56;22.10;99.90